LTBSLTBH

Guest
Details From LTBS - DALAMAN
To LTBH - CANAKKALE
Flight Number -
Tags generated
Created
Modified
Stats Distance 237 nm / 439 km
Max Altitude 30,200 ft / 9,205 m
Waypoints 6
Social Downloads 0
Likes 0
Share VATSIM

Download

Looking for another format? Having issues loading an existing format? Contact us
Advertisement - Login to hide

Notes

Basic altitude profile: - Ascent Rate: 2500ft/min - Ascent Speed: 250kts - Cruise Altitude: 10000ft - Cruise Speed: 420kts - Descent Rate: 1500ft/min - Descent Speed: 250kts Options: - Use NATs: yes - Use PACOTS: yes - Use low airways: yes - Use high airways: yes

Route

LTBS KUMAN Z713 DUGLA N131 CNK LTBH

ID Type Via Altitude Latitude Longitude Leg Dist Tot Dist Heading (true) Name
O LTBS APT - 0 ft / 0 m 36.71319˚ 28.79251˚ - 0 nm - DALAMAN
KUMAN FIX - 30,200 ft / 9,205 m 38.03167˚ 27.83278˚ 91 nm 91 nm 330° / 330° -
DUGLA FIX Z713 (AWY-LO) 22,500 ft / 6,858 m 39.49889˚ 27.22444˚ 92 nm 184 nm 342° / 342° -
SUDES FIX N131 (AWY-LO) 12,500 ft / 3,810 m 39.76944˚ 26.89333˚ 22 nm 206 nm 317° / 317° -
CNK VOR N131 (AWY-LO) 12,500 ft / 3,810 m 40.13630˚ 26.42797˚ 30 nm 237 nm 316° / 316° CANAKKALE VOR-DME
O LTBH APT - 0 ft / 0 m 40.13771˚ 26.42676˚ 0 nm 237 nm 327° / 327° CANAKKALE

Altitude Profile

Advertisement - Login to hide

Weather


0- 5 10 15 20 25 30 35+ Temperature / ° C

Clouds and Precipitation
Forecast for 2017-12-16 18:00 UTC. Updated 11 minutes ago

Ground ~20,000 ft ~40,000 ft Winds

LTBS

Details ICAO LTBS (DLM)
Name DALAMAN
Region Turkey
Timezone Europe/Istanbul (UTC+3.0)
Stats Elevation 20 ft / 6 m (AMSL)
Location 36.713189° 28.792513°
Runways 1
Magnetic Variation 4.880° E

METAR

LTBS 161520Z 15008KT 9999 SCT030 BKN100 18/12 Q1019 NOSIG

Decode

TAF

Not found

Departure Runways

ID Width Length Bearing (true) Bearing (mag) Surface Threshold Offset Overrun Length
01 148 ft / 45 m 9,851 ft / 3,003 m 15.24° 10.36° Concrete 0 ft / 0 m 197 ft / 60 m
19 148 ft / 45 m 9,851 ft / 3,003 m 195.25° 190.37° Concrete 0 ft / 0 m 197 ft / 60 m

LTBH

Details ICAO LTBH (CKZ)
Name CANAKKALE
Region Turkey
Timezone Europe/Istanbul (UTC+3.0)
Stats Elevation 23 ft / 7 m (AMSL)
Location 40.137709° 26.426764°
Runways 1
Magnetic Variation 5.032° E

METAR

LTBH 161450Z 20013KT 9999 SCT035 BKN100 18/10 Q1011

Decode

TAF

Not found

Destination Runways

ID Width Length Bearing (true) Bearing (mag) Surface Threshold Offset Overrun Length
04 98 ft / 30 m 5,905 ft / 1,800 m 41.10° 36.07° Concrete 0 ft / 0 m 100 ft / 30 m
22 98 ft / 30 m 5,905 ft / 1,800 m 221.11° 216.08° Concrete 0 ft / 0 m 100 ft / 30 m

Popular Alternatives